Time;durP1;ratioP1;P1;durP2;ratioP2;P2;SDS_P1;SDS_P2;PMS_P1;PMS_P2;Temp;Humidity;BMP_temperature;BMP_pressure;BME280_temperature;BME280_humidity;BME280_pressure;Samples;Min_cycle;Max_cycle;Signal;HPM_P1;HPM_P2
2022/03/27 00:01:49;;;;;;;9.88;5.38;;;;;;;14.72;46.72;103063.81;5072894;28;20052;-62
2022/03/27 00:04:16;;;;;;;9.25;5.63;;;;;;;14.71;46.76;103067.47;5073050;28;20079;-62
2022/03/27 00:06:43;;;;;;;8.30;5.85;;;;;;;14.68;46.88;103064.06;5081361;28;20044;-62
2022/03/27 00:09:09;;;;;;;7.72;5.43;;;;;;;14.65;46.85;103061.53;5093047;28;20047;-63
2022/03/27 00:11:36;;;;;;;7.00;5.78;;;;;;;14.62;46.84;103060.72;5074590;28;20044;-63
2022/03/27 00:14:05;;;;;;;9.30;5.53;;;;;;;14.59;46.78;103054.63;5093357;28;20110;-62
2022/03/27 00:16:33;;;;;;;8.27;5.63;;;;;;;14.56;46.67;103054.78;5075532;28;20050;-63
2022/03/27 00:19:00;;;;;;;7.07;5.55;;;;;;;14.52;46.71;103050.47;5090618;28;20047;-63
2022/03/27 00:21:27;;;;;;;9.75;5.82;;;;;;;14.48;46.90;103057.88;5086645;28;20067;-62
2022/03/27 00:23:54;;;;;;;9.05;5.68;;;;;;;14.45;46.93;103051.75;5085118;28;20048;-62
2022/03/27 00:26:21;;;;;;;7.70;5.85;;;;;;;14.41;46.99;103059.13;5092874;28;20059;-63
2022/03/27 00:28:48;;;;;;;10.00;5.90;;;;;;;14.37;46.74;103057.53;5074939;28;20129;-62
2022/03/27 00:31:16;;;;;;;8.02;5.13;;;;;;;14.35;46.96;103058.56;5093059;28;20043;-63
2022/03/27 00:33:44;;;;;;;8.57;5.40;;;;;;;14.30;46.85;103062.38;5092842;28;20484;-62
2022/03/27 00:36:13;;;;;;;7.47;5.32;;;;;;;14.25;46.85;103058.16;5085572;28;20054;-62
2022/03/27 00:38:41;;;;;;;12.60;6.07;;;;;;;14.19;46.95;103064.75;5076360;28;20045;-62
2022/03/27 00:41:08;;;;;;;10.38;5.95;;;;;;;14.15;47.05;103057.78;5076898;28;20045;-62
2022/03/27 00:43:36;;;;;;;8.77;5.63;;;;;;;14.14;46.92;103058.72;5076435;28;20402;-63
2022/03/27 00:46:03;;;;;;;8.52;5.57;;;;;;;14.11;47.08;103064.25;5081804;28;20067;-63
2022/03/27 00:48:30;;;;;;;10.75;6.55;;;;;;;14.09;47.13;103066.16;5086878;28;20036;-62
2022/03/27 00:50:56;;;;;;;12.55;6.93;;;;;;;14.06;47.27;103060.03;5086222;28;20052;-62
2022/03/27 00:53:23;;;;;;;8.60;6.15;;;;;;;14.02;47.63;103064.72;5096561;28;20495;-62
2022/03/27 00:55:49;;;;;;;9.85;6.80;;;;;;;14.00;47.63;103066.63;5096377;28;20044;-62
2022/03/27 00:58:16;;;;;;;7.85;6.22;;;;;;;13.99;47.64;103062.16;5096326;28;20044;-62
2022/03/27 01:00:50;;;;;;;9.20;6.57;;;;;;;13.96;47.87;103063.19;5066620;28;20040;-63
2022/03/27 01:03:20;;;;;;;10.20;6.68;;;;;;;13.93;47.63;103063.34;5076192;28;20435;-63
2022/03/27 01:05:48;;;;;;;10.05;6.50;;;;;;;13.89;47.87;103053.66;5076842;28;20029;-62
2022/03/27 01:08:16;;;;;;;12.20;6.63;;;;;;;13.86;48.06;103059.22;5075659;28;20486;-62
2022/03/27 01:10:43;;;;;;;10.32;7.18;;;;;;;13.79;48.17;103060.47;5075712;28;20048;-62
2022/03/27 01:13:16;;;;;;;11.13;6.93;;;;;;;13.73;48.36;103055.38;5075961;28;20053;-63
2022/03/27 01:15:46;;;;;;;9.98;7.05;;;;;;;13.66;48.35;103049.38;5094672;28;20127;-62
2022/03/27 01:18:13;;;;;;;8.27;6.90;;;;;;;13.61;48.39;103066.75;5075713;28;20052;-62
2022/03/27 01:20:41;;;;;;;8.55;6.90;;;;;;;13.55;48.41;103065.25;5089944;28;20150;-62
2022/03/27 01:23:11;;;;;;;12.77;6.72;;;;;;;13.51;48.53;103062.75;5095666;28;20497;-63
2022/03/27 01:25:39;;;;;;;11.60;6.90;;;;;;;13.50;48.69;103066.41;5095968;28;20402;-63
2022/03/27 01:28:08;;;;;;;10.98;6.93;;;;;;;13.46;48.82;103064.81;5079353;28;20032;-62
2022/03/27 01:30:38;;;;;;;9.40;6.70;;;;;;;13.42;48.72;103060.50;5095450;28;20111;-62
2022/03/27 01:33:09;;;;;;;10.93;8.25;;;;;;;13.39;48.90;103066.06;5095354;28;20050;-62
2022/03/27 01:35:37;;;;;;;13.10;9.00;;;;;;;13.34;49.00;103061.72;5095335;28;20044;-62
2022/03/27 01:38:04;;;;;;;10.93;8.40;;;;;;;13.33;49.23;103053.69;5093228;28;20067;-62
2022/03/27 01:40:31;;;;;;;12.23;9.32;;;;;;;13.35;49.38;103059.88;5095460;28;20046;-62
2022/03/27 01:42:57;;;;;;;12.63;9.38;;;;;;;13.38;49.57;103061.56;5073270;28;20051;-62
2022/03/27 01:45:25;;;;;;;11.48;9.18;;;;;;;13.41;49.64;103058.75;5094871;28;20046;-62
2022/03/27 01:47:51;;;;;;;13.48;9.25;;;;;;;13.44;49.82;103058.59;5094406;28;20108;-62
2022/03/27 01:50:18;;;;;;;13.90;10.40;;;;;;;13.46;49.81;103056.72;5083358;28;20037;-62
2022/03/27 01:52:44;;;;;;;16.02;11.38;;;;;;;13.46;50.13;103059.41;5078821;28;20120;-61
2022/03/27 01:55:13;;;;;;;19.42;12.93;;;;;;;13.45;50.32;103060.34;5074997;28;20055;-61
2022/03/27 01:57:42;;;;;;;19.45;12.95;;;;;;;13.46;50.62;103062.97;5074792;28;20405;-62
2022/03/27 02:00:10;;;;;;;19.85;12.45;;;;;;;13.46;50.86;103062.09;5075976;28;20045;-61
2022/03/27 02:02:40;;;;;;;17.13;13.00;;;;;;;13.45;50.97;103055.84;5095168;28;20059;-62
2022/03/27 02:05:08;;;;;;;16.45;12.60;;;;;;;13.41;51.06;103051.53;5094585;28;20118;-62
2022/03/27 02:07:42;;;;;;;18.02;12.93;;;;;;;13.39;51.28;103049.84;5094885;28;20043;-62
2022/03/27 02:10:09;;;;;;;15.82;12.35;;;;;;;13.38;51.40;103051.69;5094362;28;20128;-62
2022/03/27 02:12:36;;;;;;;17.98;13.50;;;;;;;13.35;51.58;103052.66;5096646;28;20044;-62
2022/03/27 02:15:07;;;;;;;18.17;13.10;;;;;;;13.34;51.78;103052.75;5094950;28;20040;-63
2022/03/27 02:17:38;;;;;;;16.52;12.60;;;;;;;13.29;52.12;103047.56;5094991;28;20070;-62
2022/03/27 02:20:08;;;;;;;17.63;12.45;;;;;;;13.29;51.96;103049.38;5083747;28;20047;-62
2022/03/27 02:22:35;;;;;;;17.00;13.52;;;;;;;13.30;52.16;103057.41;5060465;28;20040;-62
2022/03/27 02:25:03;;;;;;;17.90;12.85;;;;;;;13.32;52.50;103050.13;5074713;28;20036;-62
2022/03/27 02:27:30;;;;;;;17.77;13.23;;;;;;;13.36;52.34;103054.41;5074356;28;20040;-62
2022/03/27 02:29:57;;;;;;;20.42;13.35;;;;;;;13.39;52.62;103056.13;5075556;28;20496;-62
2022/03/27 02:32:24;;;;;;;20.38;14.07;;;;;;;13.44;52.56;103056.78;5074418;28;20059;-62
2022/03/27 02:34:50;;;;;;;20.42;13.85;;;;;;;13.49;52.62;103056.56;5090165;28;20500;-62
2022/03/27 02:37:17;;;;;;;21.17;14.20;;;;;;;13.51;52.74;103060.06;5094360;28;20036;-62
2022/03/27 02:39:44;;;;;;;18.13;13.05;;;;;;;13.50;52.57;103058.31;5094440;28;20044;-62
2022/03/27 02:42:11;;;;;;;18.50;13.18;;;;;;;13.50;52.80;103059.19;5079786;28;20041;-62
2022/03/27 02:44:37;;;;;;;18.08;14.23;;;;;;;13.50;52.95;103063.72;5074157;28;20045;-62
2022/03/27 02:47:05;;;;;;;19.85;14.38;;;;;;;13.51;52.89;103054.66;5085501;28;20055;-62
2022/03/27 02:49:32;;;;;;;17.60;13.57;;;;;;;13.52;52.94;103059.13;5093302;28;20047;-62
2022/03/27 02:51:58;;;;;;;17.27;13.15;;;;;;;13.52;52.81;103056.41;5084616;28;20047;-62
2022/03/27 02:54:25;;;;;;;15.82;12.43;;;;;;;13.50;53.05;103055.63;5093620;28;20067;-62
2022/03/27 02:56:52;;;;;;;16.65;12.93;;;;;;;13.49;53.17;103056.56;5093381;28;20040;-61
2022/03/27 02:59:19;;;;;;;18.92;13.48;;;;;;;13.45;53.29;103044.16;5091480;28;20040;-62
2022/03/27 03:01:46;;;;;;;16.80;13.27;;;;;;;13.42;53.32;103041.63;5092589;28;20040;-62
2022/03/27 03:04:14;;;;;;;16.90;13.38;;;;;;;13.38;53.56;103045.38;5093380;28;20096;-62
2022/03/27 03:06:41;;;;;;;17.52;13.40;;;;;;;13.35;53.44;103044.56;5091931;28;20040;-62
2022/03/27 03:09:08;;;;;;;17.58;12.65;;;;;;;13.36;53.70;103045.44;5092604;28;20082;-62
2022/03/27 03:11:35;;;;;;;17.77;13.35;;;;;;;13.40;53.73;103046.22;5071980;28;20047;-62
2022/03/27 03:14:02;;;;;;;17.80;13.18;;;;;;;13.43;53.77;103041.53;5071744;28;20055;-62
2022/03/27 03:16:50;;;;;;;21.27;15.68;;;;;;;13.44;53.79;103037.88;5091698;28;20032;-62
2022/03/27 03:19:16;;;;;;;23.63;16.13;;;;;;;13.44;53.81;103042.41;5093149;28;20036;-62
2022/03/27 03:21:43;;;;;;;20.58;15.50;;;;;;;13.39;53.75;103037.22;5093341;28;20040;-62
2022/03/27 03:24:10;;;;;;;20.38;15.38;;;;;;;13.36;53.86;103040.91;5093127;28;20047;-63
2022/03/27 03:26:36;;;;;;;20.08;14.82;;;;;;;13.35;53.82;103044.56;5092955;28;20500;-62
2022/03/27 03:29:03;;;;;;;23.00;16.67;;;;;;;13.33;53.82;103043.78;5091563;28;20067;-62
2022/03/27 03:31:29;;;;;;;25.58;16.40;;;;;;;13.29;53.90;103042.16;5074917;28;20051;-62
2022/03/27 03:33:56;;;;;;;23.02;15.70;;;;;;;13.26;53.92;103039.63;5092896;28;20040;-61
2022/03/27 03:36:22;;;;;;;23.45;15.95;;;;;;;13.23;53.92;103041.59;5092580;28;20036;-62
2022/03/27 03:38:49;;;;;;;23.17;16.42;;;;;;;13.20;54.23;103045.31;5092679;28;20706;-62
2022/03/27 03:41:17;;;;;;;22.42;15.82;;;;;;;13.18;54.25;103041.78;5090374;28;20040;-61
2022/03/27 03:43:44;;;;;;;24.38;16.50;;;;;;;13.17;54.27;103040.03;5092809;28;20067;-62
2022/03/27 03:46:10;;;;;;;21.38;16.17;;;;;;;13.19;54.13;103043.56;5092388;28;20393;-63
2022/03/27 03:48:39;;;;;;;25.00;16.75;;;;;;;13.20;54.33;103039.03;5092448;28;20101;-63
2022/03/27 03:51:06;;;;;;;26.20;18.23;;;;;;;13.20;54.33;103041.72;5092575;28;20040;-62
2022/03/27 03:53:33;;;;;;;26.45;17.58;;;;;;;13.22;54.49;103043.41;5092718;28;20044;-62
2022/03/27 03:55:59;;;;;;;27.35;18.35;;;;;;;13.23;54.54;103034.38;5093145;28;20040;-62
2022/03/27 03:58:26;;;;;;;27.20;19.05;;;;;;;13.24;54.45;103036.13;5093020;28;20051;-62
2022/03/27 04:00:52;;;;;;;29.73;19.30;;;;;;;13.26;54.57;103039.63;5077450;28;20032;-62
2022/03/27 04:03:19;;;;;;;29.00;19.33;;;;;;;13.27;54.76;103040.50;5074349;28;20052;-62
2022/03/27 04:05:46;;;;;;;28.05;19.42;;;;;;;13.25;54.61;103032.47;5092944;28;20067;-62
2022/03/27 04:08:14;;;;;;;31.25;20.15;;;;;;;13.24;54.59;103038.81;5093110;28;20040;-62
2022/03/27 04:10:41;;;;;;;30.15;19.50;;;;;;;13.24;54.48;103036.13;5094643;28;20040;-63
2022/03/27 04:13:11;;;;;;;35.15;19.48;;;;;;;13.23;54.62;103031.66;5079321;28;20501;-62
2022/03/27 04:15:38;;;;;;;33.00;20.58;;;;;;;13.20;54.53;103031.81;5097309;28;20036;-62
2022/03/27 04:18:20;;;;;;;32.80;19.33;;;;;;;13.19;54.55;103035.47;5092100;28;20530;-62
2022/03/27 04:20:47;;;;;;;32.38;19.92;;;;;;;13.19;54.92;103034.59;5096788;28;20047;-62
2022/03/27 04:23:14;;;;;;;31.25;19.60;;;;;;;13.17;54.70;103037.34;5097144;28;20036;-62
2022/03/27 04:25:41;;;;;;;31.50;21.13;;;;;;;13.18;54.75;103032.84;5096058;28;20606;-63
2022/03/27 04:28:09;;;;;;;31.52;19.27;;;;;;;13.19;54.75;103030.06;5087829;28;20405;-62
2022/03/27 04:30:37;;;;;;;35.85;21.30;;;;;;;13.22;55.06;103029.91;5097101;28;20044;-62
2022/03/27 04:33:04;;;;;;;28.35;19.58;;;;;;;13.24;55.23;103036.13;5089306;28;20063;-62
2022/03/27 04:35:31;;;;;;;32.22;21.52;;;;;;;13.28;54.95;103044.94;5096950;28;20147;-62
2022/03/27 04:37:58;;;;;;;35.40;21.38;;;;;;;13.30;54.95;103041.22;5059248;28;20081;-62
2022/03/27 04:40:24;;;;;;;34.15;21.35;;;;;;;13.30;55.00;103035.81;5089585;28;20044;-61
2022/03/27 04:42:51;;;;;;;38.85;23.83;;;;;;;13.29;55.03;103035.88;5096599;28;20059;-62
2022/03/27 04:45:17;;;;;;;36.55;22.13;;;;;;;13.28;55.03;103043.13;5088093;28;20045;-62
2022/03/27 04:47:44;;;;;;;38.20;22.60;;;;;;;13.27;55.13;103045.88;5096387;28;20119;-62
2022/03/27 04:50:10;;;;;;;35.65;22.00;;;;;;;13.24;55.04;103049.59;5084197;28;20040;-62
2022/03/27 04:52:38;;;;;;;37.47;23.50;;;;;;;13.22;55.11;103043.41;5076602;28;20044;-62
2022/03/27 04:55:05;;;;;;;35.30;22.42;;;;;;;13.18;55.20;103051.72;5093423;28;20040;-63
2022/03/27 04:57:39;;;;;;;30.83;20.13;;;;;;;13.16;55.09;103058.97;5083009;28;20504;-62
2022/03/27 05:00:11;;;;;;;35.75;20.95;;;;;;;13.11;55.18;103055.63;5077978;28;20036;-63
2022/03/27 05:02:38;;;;;;;33.47;20.38;;;;;;;13.08;55.33;103056.63;5076331;28;20394;-61
2022/03/27 05:05:07;;;;;;;29.92;18.48;;;;;;;13.06;55.31;103055.84;5078496;28;20044;-63
2022/03/27 05:07:46;;;;;;;28.52;17.58;;;;;;;13.05;55.44;103054.06;5077596;28;20053;-63
2022/03/27 05:10:13;;;;;;;26.48;16.98;;;;;;;13.03;55.25;103058.66;5078356;28;20040;-63
2022/03/27 05:12:40;;;;;;;24.92;15.88;;;;;;;12.99;55.31;103068.72;5096326;28;20042;-62
2022/03/27 05:15:09;;;;;;;28.65;16.05;;;;;;;12.98;55.44;103075.06;5096072;28;20063;-63
2022/03/27 05:17:46;;;;;;;27.02;16.50;;;;;;;12.97;55.72;103059.81;5081399;28;20083;-62
2022/03/27 05:20:13;;;;;;;25.42;16.52;;;;;;;12.96;55.34;103065.28;5075575;28;20512;-62
2022/03/27 05:22:43;;;;;;;26.08;16.25;;;;;;;12.97;55.44;103065.22;5086485;28;20584;-63
2022/03/27 05:25:12;;;;;;;25.70;16.33;;;;;;;12.99;55.33;103067.84;5095166;28;20102;-62
2022/03/27 05:27:47;;;;;;;27.80;17.48;;;;;;;12.97;55.41;103067.91;5094113;28;20036;-63
2022/03/27 05:30:21;;;;;;;27.45;17.20;;;;;;;12.96;55.38;103065.28;5075715;28;20049;-62
2022/03/27 05:32:49;;;;;;;31.37;17.83;;;;;;;12.93;55.25;103062.75;5093286;28;20044;-62
2022/03/27 05:35:16;;;;;;;29.92;18.58;;;;;;;12.89;55.36;103062.00;5095660;28;20047;-62
2022/03/27 05:37:45;;;;;;;30.70;17.83;;;;;;;12.87;55.48;103068.41;5094811;28;20044;-62
2022/03/27 05:40:14;;;;;;;28.55;17.05;;;;;;;12.82;55.50;103065.03;5083084;28;20052;-62
2022/03/27 05:42:42;;;;;;;26.80;16.15;;;;;;;12.77;55.34;103065.25;5079435;28;20043;-62
2022/03/27 05:45:09;;;;;;;28.63;17.13;;;;;;;12.75;55.37;103066.28;5075634;28;20456;-62
2022/03/27 05:47:41;;;;;;;29.55;17.27;;;;;;;12.72;55.62;103060.06;5094935;28;20036;-62
2022/03/27 05:50:13;;;;;;;27.63;16.60;;;;;;;12.70;55.32;103064.66;5075394;28;20036;-62
2022/03/27 05:52:44;;;;;;;27.92;16.33;;;;;;;12.68;55.37;103069.25;5076511;28;20039;-61
2022/03/27 05:55:12;;;;;;;27.73;16.63;;;;;;;12.65;55.52;103077.47;5094381;28;20398;-62
2022/03/27 05:57:39;;;;;;;27.63;17.15;;;;;;;12.63;55.76;103082.03;5076504;28;20032;-62
2022/03/27 06:00:08;;;;;;;28.23;16.23;;;;;;;12.60;55.67;103079.47;5094098;28;20121;-63
2022/03/27 06:02:36;;;;;;;29.90;17.02;;;;;;;12.60;55.81;103087.53;5080681;28;20127;-62
2022/03/27 06:05:03;;;;;;;27.08;16.23;;;;;;;12.62;55.70;103091.03;5057252;28;20047;-62
2022/03/27 06:07:29;;;;;;;25.90;15.77;;;;;;;12.62;55.56;103092.88;5082478;28;20041;-62
2022/03/27 06:09:56;;;;;;;24.40;15.05;;;;;;;12.62;55.76;103093.75;5090266;28;20074;-62
2022/03/27 06:12:22;;;;;;;25.48;15.55;;;;;;;12.63;55.87;103095.53;5077340;28;20055;-63
2022/03/27 06:14:49;;;;;;;28.35;16.23;;;;;;;12.65;55.74;103099.03;5099797;28;20343;-62
2022/03/27 06:17:16;;;;;;;26.13;15.55;;;;;;;12.69;55.47;103100.66;5093880;28;20490;-62
2022/03/27 06:19:43;;;;;;;25.70;17.27;;;;;;;12.70;55.75;103097.00;5076932;28;20068;-62
2022/03/27 06:22:09;;;;;;;25.30;16.38;;;;;;;12.70;55.46;103099.72;5090523;28;20049;-63
2022/03/27 06:24:36;;;;;;;24.83;16.08;;;;;;;12.72;55.68;103105.03;5079473;28;20508;-62
2022/03/27 06:27:02;;;;;;;27.65;17.20;;;;;;;12.72;55.67;103103.22;5068395;28;20032;-62
2022/03/27 06:29:29;;;;;;;24.95;15.73;;;;;;;12.73;55.60;103112.19;5074372;28;20098;-62
2022/03/27 06:31:56;;;;;;;24.73;15.50;;;;;;;12.74;55.79;103111.22;5075845;28;20493;-62
2022/03/27 06:34:22;;;;;;;25.45;15.82;;;;;;;12.73;55.66;103113.06;5079918;28;20039;-62
2022/03/27 06:36:49;;;;;;;23.85;15.80;;;;;;;12.70;55.65;103113.19;5075391;28;20045;-62
2022/03/27 06:39:15;;;;;;;23.08;15.43;;;;;;;12.68;55.49;103115.06;5081411;28;20524;-62
2022/03/27 06:41:42;;;;;;;20.77;13.82;;;;;;;12.64;55.81;103113.44;5092844;28;20039;-62
2022/03/27 06:44:08;;;;;;;24.02;15.45;;;;;;;12.61;55.66;103113.56;5076218;28;20052;-61
2022/03/27 06:46:35;;;;;;;25.13;15.35;;;;;;;12.59;55.86;103117.25;5086992;28;20036;-61
2022/03/27 06:49:02;;;;;;;24.13;14.65;;;;;;;12.55;55.87;103112.94;5073741;28;20052;-60
2022/03/27 06:51:29;;;;;;;24.05;15.18;;;;;;;12.52;55.87;103110.38;5084281;28;20040;-61
2022/03/27 06:53:55;;;;;;;21.45;14.63;;;;;;;12.51;55.93;103117.59;5083469;28;20040;-60
2022/03/27 06:56:22;;;;;;;24.02;15.10;;;;;;;12.51;55.98;103100.53;5092095;28;20051;-60
2022/03/27 06:58:48;;;;;;;22.60;14.95;;;;;;;12.53;55.99;103109.44;5055680;28;20053;-61
2022/03/27 07:04:00;;;;;;;24.57;15.07;;;;;;;12.52;55.79;103110.38;5086751;28;20401;-63
2022/03/27 07:06:26;;;;;;;22.73;14.00;;;;;;;12.51;55.77;103109.50;5086750;28;20044;-62
2022/03/27 07:08:53;;;;;;;22.67;14.57;;;;;;;12.51;55.84;103117.59;5055782;28;20504;-62
2022/03/27 07:11:19;;;;;;;22.67;13.57;;;;;;;12.50;55.78;103109.56;5078786;28;20046;-62
2022/03/27 07:13:46;;;;;;;23.77;13.68;;;;;;;12.48;55.97;103112.34;5093547;28;20032;-62
2022/03/27 07:16:14;;;;;;;21.92;14.27;;;;;;;12.46;55.77;103114.22;5086965;28;20043;-62
2022/03/27 07:18:40;;;;;;;21.67;14.38;;;;;;;12.45;55.77;103114.28;5073728;28;20040;-62
2022/03/27 07:21:11;;;;;;;21.02;14.50;;;;;;;12.44;55.84;103107.16;5073671;28;20043;-61
2022/03/27 07:23:37;;;;;;;23.27;14.73;;;;;;;12.44;55.98;103112.53;5089368;28;20537;-62
2022/03/27 07:26:04;;;;;;;22.67;14.65;;;;;;;12.44;55.98;103109.84;5093221;28;20050;-62
2022/03/27 07:28:31;;;;;;;23.38;14.23;;;;;;;12.47;56.00;103109.72;5093590;28;20043;-62
2022/03/27 07:30:59;;;;;;;21.55;14.77;;;;;;;12.49;55.87;103102.44;5073648;28;20040;-62
2022/03/27 07:33:27;;;;;;;23.13;14.13;;;;;;;12.49;55.88;103099.72;5073370;28;20051;-62
2022/03/27 07:35:55;;;;;;;23.80;15.13;;;;;;;12.50;55.89;103106.88;5074763;28;20036;-62
2022/03/27 07:38:22;;;;;;;25.10;14.40;;;;;;;12.49;55.96;103097.91;5093648;28;20047;-63
2022/03/27 07:40:49;;;;;;;22.23;14.15;;;;;;;12.51;56.07;103101.41;5093353;28;20040;-61
2022/03/27 07:43:15;;;;;;;22.13;14.57;;;;;;;12.53;56.06;103107.63;5077270;28;20038;-62
2022/03/27 07:45:42;;;;;;;23.05;15.70;;;;;;;12.56;56.17;103103.91;5077878;28;20040;-62
2022/03/27 07:48:09;;;;;;;22.02;14.10;;;;;;;12.59;55.89;103106.47;5090126;28;20070;-62
2022/03/27 07:50:36;;;;;;;21.58;13.77;;;;;;;12.59;55.78;103107.34;5065440;28;20470;-62
2022/03/27 07:53:04;;;;;;;24.20;14.73;;;;;;;12.62;56.08;103109.91;5073233;28;20124;-63
2022/03/27 07:55:33;;;;;;;21.50;13.45;;;;;;;12.66;56.12;103108.00;5073068;28;20040;-62
2022/03/27 07:58:00;;;;;;;21.17;13.55;;;;;;;12.70;56.04;103115.00;5079353;28;20056;-62
2022/03/27 08:00:30;;;;;;;23.13;14.30;;;;;;;12.76;56.17;103108.47;5093533;28;20115;-62
2022/03/27 08:02:57;;;;;;;20.65;13.52;;;;;;;12.79;55.98;103114.59;5077477;28;20036;-62
2022/03/27 08:05:24;;;;;;;22.75;14.02;;;;;;;12.82;56.20;103111.75;5073310;28;20052;-62
2022/03/27 08:07:51;;;;;;;23.15;13.98;;;;;;;12.84;55.91;103109.00;5090477;28;20038;-62
2022/03/27 08:10:19;;;;;;;24.00;15.02;;;;;;;12.83;56.01;103115.34;5093551;28;20032;-63
2022/03/27 08:12:47;;;;;;;21.42;13.52;;;;;;;12.82;56.03;103114.47;5090121;28;20035;-62
2022/03/27 08:15:21;;;;;;;23.95;14.60;;;;;;;12.81;55.91;103114.53;5092433;28;20055;-63
2022/03/27 08:17:51;;;;;;;21.83;14.02;;;;;;;12.79;55.95;103108.31;5092632;28;20119;-62
2022/03/27 08:20:18;;;;;;;21.65;13.90;;;;;;;12.78;55.99;103114.66;5093412;28;20036;-63
2022/03/27 08:22:45;;;;;;;20.27;13.85;;;;;;;12.76;55.99;103103.06;5093537;28;20032;-62
2022/03/27 08:26:55;;;;;;;20.30;14.43;;;;;;;12.78;55.83;103111.97;5091412;28;20064;-62
2022/03/27 08:27:58;;;;;;;21.52;14.00;;;;;;;12.80;56.03;103119.03;5043554;28;20047;-62
2022/03/27 08:30:25;;;;;;;21.10;13.65;;;;;;;12.85;55.93;103113.44;5055407;28;20390;-63
2022/03/27 08:32:51;;;;;;;20.45;13.85;;;;;;;12.90;55.77;103115.00;5038920;28;20041;-62
2022/03/27 08:35:18;;;;;;;23.05;14.60;;;;;;;12.95;55.79;103112.09;5072719;28;20048;-62
2022/03/27 08:37:44;;;;;;;19.98;13.63;;;;;;;12.96;55.71;103116.53;5072425;28;20044;-63
2022/03/27 08:40:15;;;;;;;19.17;13.38;;;;;;;12.96;55.67;103116.53;5072886;28;20433;-62
2022/03/27 08:42:43;;;;;;;23.30;14.18;;;;;;;13.00;55.81;103113.63;5073746;28;20055;-62
2022/03/27 08:45:10;;;;;;;19.77;13.90;;;;;;;13.02;55.80;103114.44;5054499;28;20049;-62
2022/03/27 08:47:39;;;;;;;22.63;15.00;;;;;;;13.08;55.83;103112.41;5088538;28;20043;-63
2022/03/27 08:50:29;;;;;;;19.23;13.00;;;;;;;13.15;55.87;103112.06;5082080;28;20056;-64
2022/03/27 08:52:59;;;;;;;18.33;12.02;;;;;;;13.25;55.76;103112.53;5068751;28;20035;-64
2022/03/27 08:55:46;;;;;;;18.73;12.13;;;;;;;13.33;55.71;103113.94;5091408;28;20151;-64
2022/03/27 08:58:13;;;;;;;17.92;12.10;;;;;;;13.41;55.75;103113.59;5073382;28;20055;-65
2022/03/27 09:00:40;;;;;;;19.23;12.00;;;;;;;13.49;55.32;103111.44;5064780;28;20043;-63
2022/03/27 09:03:12;;;;;;;18.27;11.82;;;;;;;13.55;55.39;103111.13;5078887;28;20544;-64
2022/03/27 09:05:39;;;;;;;15.77;11.35;;;;;;;13.61;55.23;103109.97;5090324;28;20037;-64
2022/03/27 09:08:10;;;;;;;18.10;11.90;;;;;;;13.73;55.33;103117.47;5095039;28;20040;-64
2022/03/27 09:10:40;;;;;;;19.02;13.20;;;;;;;13.83;55.14;103113.38;5095430;28;20405;-64
2022/03/27 09:13:17;;;;;;;14.73;11.43;;;;;;;13.92;54.99;103107.53;5095121;28;20542;-63
2022/03/27 09:15:45;;;;;;;16.23;11.07;;;;;;;14.04;54.76;103108.75;5095157;28;20051;-64
2022/03/27 09:18:14;;;;;;;14.60;11.00;;;;;;;14.14;54.91;103114.59;5077727;28;20481;-64
2022/03/27 09:20:42;;;;;;;15.85;10.68;;;;;;;14.22;54.55;103102.44;5095917;28;20514;-65
2022/03/27 09:23:30;;;;;;;17.55;11.10;;;;;;;14.36;54.56;103108.97;5078464;28;20055;-64
2022/03/27 09:26:00;;;;;;;14.35;10.93;;;;;;;14.52;54.37;103107.28;5080624;28;20548;-64
2022/03/27 09:28:28;;;;;;;17.05;11.43;;;;;;;14.68;54.14;103110.91;5095671;28;20130;-64
2022/03/27 09:30:57;;;;;;;14.63;10.65;;;;;;;14.87;53.76;103103.63;5094062;28;20393;-64
2022/03/27 09:33:36;;;;;;;13.63;10.40;;;;;;;15.14;53.92;103103.06;5075703;28;20045;-64
2022/03/27 09:36:05;;;;;;;16.20;10.90;;;;;;;15.38;53.68;103108.97;5057385;28;20044;-64
2022/03/27 09:38:32;;;;;;;14.00;10.93;;;;;;;15.62;53.32;103102.25;5057419;28;20041;-64
2022/03/27 09:40:58;;;;;;;14.15;10.90;;;;;;;15.83;52.70;103098.31;5058720;28;20052;-64
2022/03/27 09:43:24;;;;;;;15.48;10.98;;;;;;;16.01;52.27;103095.50;5075412;28;20047;-65
2022/03/27 09:45:59;;;;;;;13.43;10.15;;;;;;;16.16;51.80;103092.75;5076053;28;20494;-64
2022/03/27 09:48:26;;;;;;;14.15;10.13;;;;;;;16.29;51.70;103095.63;5051761;28;20451;-64
2022/03/27 09:50:58;;;;;;;13.65;9.82;;;;;;;16.44;50.97;103092.03;5094764;28;20051;-65
2022/03/27 09:53:27;;;;;;;13.93;9.05;;;;;;;16.61;50.83;103084.69;5095148;28;20058;-63
2022/03/27 09:55:57;;;;;;;13.90;10.13;;;;;;;16.75;50.73;103087.47;5093622;28;20055;-65
2022/03/27 09:58:37;;;;;;;13.57;9.90;;;;;;;16.92;50.34;103087.28;5077334;28;20073;-64
2022/03/27 10:01:16;;;;;;;13.32;9.98;;;;;;;17.09;50.04;103080.81;5072076;28;20058;-65
2022/03/27 10:04:10;;;;;;;12.52;9.40;;;;;;;17.26;49.92;103085.19;5095224;28;20051;-66
2022/03/27 10:06:39;;;;;;;13.18;9.95;;;;;;;17.47;49.25;103075.66;5083095;28;20043;-65
2022/03/27 10:09:09;;;;;;;12.48;10.15;;;;;;;17.59;48.89;103071.28;5074520;28;20054;-66
2022/03/27 10:11:37;;;;;;;12.95;9.90;;;;;;;17.68;48.64;103063.41;5065449;28;20093;-64
2022/03/27 10:14:06;;;;;;;10.43;9.00;;;;;;;17.81;48.21;103060.75;5094991;28;20115;-65
2022/03/27 10:16:38;;;;;;;11.65;9.45;;;;;;;17.95;48.00;103051.72;5062045;28;20041;-65
2022/03/27 10:19:32;;;;;;;12.95;9.45;;;;;;;18.06;47.81;103047.28;5056387;28;20070;-65
2022/03/27 10:22:01;;;;;;;13.52;10.00;;;;;;;18.23;47.36;103051.59;5053303;28;20059;-64
2022/03/27 10:24:32;;;;;;;12.43;10.40;;;;;;;18.32;47.11;103041.91;5079770;28;20037;-65
2022/03/27 10:27:02;;;;;;;12.13;10.00;;;;;;;18.40;47.18;103048.56;5074175;28;20044;-66
2022/03/27 10:29:29;;;;;;;12.20;9.98;;;;;;;18.50;46.93;103045.19;5056636;28;20090;-65
2022/03/27 10:32:04;;;;;;;13.13;10.45;;;;;;;18.60;46.46;103040.91;5075510;28;20120;-65
2022/03/27 10:34:46;;;;;;;12.35;9.63;;;;;;;18.75;46.15;103037.13;5074371;28;20090;-65
2022/03/27 10:37:32;;;;;;;11.23;8.88;;;;;;;18.93;46.01;103037.66;5056155;28;20056;-64
2022/03/27 10:40:07;;;;;;;13.90;10.30;;;;;;;19.10;46.02;103037.31;5056225;28;20051;-64
2022/03/27 10:42:51;;;;;;;12.68;10.23;;;;;;;19.27;45.42;103030.63;5075344;28;20410;-64
2022/03/27 10:45:22;;;;;;;12.90;9.32;;;;;;;19.47;45.52;103027.34;5081255;28;20048;-64
2022/03/27 10:48:13;;;;;;;13.30;10.27;;;;;;;19.68;45.19;103025.75;5059374;28;20047;-64
2022/03/27 10:50:50;;;;;;;11.40;9.80;;;;;;;19.87;44.39;103029.81;5060918;28;20067;-65
2022/03/27 10:53:22;;;;;;;15.95;9.02;;;;;;;19.91;44.35;103023.16;5092019;28;20047;-65
2022/03/27 10:55:53;;;;;;;10.45;8.60;;;;;;;19.96;43.93;103018.22;5071270;28;20048;-66
2022/03/27 10:58:35;;;;;;;9.85;8.27;;;;;;;20.11;43.70;103017.06;5069042;28;20058;-64
2022/03/27 11:01:06;;;;;;;12.30;9.23;;;;;;;20.29;43.50;103025.69;5094232;28;20048;-65
2022/03/27 11:04:04;;;;;;;11.75;9.35;;;;;;;20.37;42.89;103019.63;5076542;28;20408;-66
2022/03/27 11:06:33;;;;;;;10.85;8.40;;;;;;;20.50;42.54;103017.69;5077861;28;20032;-64
2022/03/27 11:09:03;;;;;;;11.13;9.30;;;;;;;20.55;42.11;103020.94;5075060;28;20065;-64
2022/03/27 11:11:44;;;;;;;11.45;9.05;;;;;;;20.57;41.65;103017.09;5093590;28;20039;-65
2022/03/27 11:14:22;;;;;;;9.70;8.25;;;;;;;20.66;41.68;103020.09;5081673;28;20045;-65
2022/03/27 11:17:07;;;;;;;11.13;9.07;;;;;;;20.76;41.11;103007.44;5062719;28;20043;-65
2022/03/27 11:19:45;;;;;;;11.98;8.63;;;;;;;20.93;41.15;103002.38;5072765;28;20048;-65
2022/03/27 11:22:44;;;;;;;11.45;8.27;;;;;;;21.07;40.53;102994.91;5077134;28;20043;-65
2022/03/27 11:25:26;;;;;;;10.75;8.05;;;;;;;21.21;40.28;102998.25;5093661;28;20490;-65